Time;durP1;ratioP1;P1;durP2;ratioP2;P2;SDS_P1;SDS_P2;PMS_P1;PMS_P2;Temp;Humidity;BMP_temperature;BMP_pressure;BME280_temperature;BME280_humidity;BME280_pressure;Samples;Min_cycle;Max_cycle;Signal;HPM_P1;HPM_P2
2022/07/04 00:01:07;;;;;;;5.53;2.70;;;;;;;20.56;60.35;100529.81;5012900;28;20018;-78
2022/07/04 00:03:32;;;;;;;7.30;3.20;;;;;;;20.69;61.58;100597.97;5011249;28;20044;-79
2022/07/04 00:05:58;;;;;;;7.47;2.97;;;;;;;20.63;62.13;100605.00;5012317;28;20018;-79
2022/07/04 00:08:23;;;;;;;7.63;2.80;;;;;;;20.22;62.62;100543.00;5012285;28;20515;-80
2022/07/04 00:10:49;;;;;;;13.77;3.15;;;;;;;20.51;62.55;100585.78;5012243;28;20076;-79
2022/07/04 00:13:14;;;;;;;6.93;3.50;;;;;;;20.76;62.54;100603.22;5012147;28;20026;-79
2022/07/04 00:15:40;;;;;;;5.53;3.38;;;;;;;20.50;62.58;100560.44;5012370;28;20022;-79
2022/07/04 00:18:05;;;;;;;4.82;2.78;;;;;;;20.51;62.05;100550.78;5012240;28;20541;-79
2022/07/04 00:20:31;;;;;;;5.85;2.90;;;;;;;20.68;61.71;100535.00;5012386;28;20420;-78
2022/07/04 00:22:56;;;;;;;7.13;2.92;;;;;;;20.95;61.93;100567.31;5011918;28;20030;-79
2022/07/04 00:25:22;;;;;;;7.93;3.38;;;;;;;21.28;61.50;100594.28;5012023;28;20021;-79
2022/07/04 00:27:47;;;;;;;7.45;3.20;;;;;;;21.47;60.72;100605.53;5011768;28;20034;-79
2022/07/04 00:30:13;;;;;;;8.40;3.75;;;;;;;21.48;60.09;100612.53;5012103;28;20033;-80
2022/07/04 00:32:38;;;;;;;5.47;2.80;;;;;;;21.21;60.48;100600.44;4994425;28;20034;-79
2022/07/04 00:35:05;;;;;;;6.70;3.75;;;;;;;20.85;61.72;100600.59;5011567;28;20045;-80
2022/07/04 00:37:31;;;;;;;14.65;3.97;;;;;;;20.69;63.03;100602.34;5011964;28;20112;-80
2022/07/04 00:39:56;;;;;;;8.20;2.92;;;;;;;20.28;62.59;100545.63;5011764;28;20472;-79
2022/07/04 00:42:22;;;;;;;6.13;3.35;;;;;;;20.03;63.88;100537.78;5010388;28;20515;-80
2022/07/04 00:44:47;;;;;;;8.40;3.38;;;;;;;20.35;63.87;100599.81;5011905;28;20038;-79
2022/07/04 00:47:13;;;;;;;8.25;3.40;;;;;;;20.40;63.25;100579.69;5011514;28;20463;-77
2022/07/04 00:49:39;;;;;;;5.50;3.10;;;;;;;20.17;64.21;100569.22;5011573;28;20064;-79
2022/07/04 00:52:06;;;;;;;11.15;3.40;;;;;;;20.56;62.97;100605.88;5011850;28;20401;-79
2022/07/04 00:54:32;;;;;;;7.05;3.00;;;;;;;20.59;63.40;100612.00;5011268;28;20413;-79
2022/07/04 00:56:59;;;;;;;5.75;3.17;;;;;;;20.58;63.30;100605.00;5009867;28;20022;-77
2022/07/04 00:59:24;;;;;;;11.30;3.92;;;;;;;20.64;63.48;100604.97;5010289;28;20092;-77
2022/07/04 01:01:50;;;;;;;9.25;3.00;;;;;;;20.69;63.06;100608.47;5011365;28;20030;-78
2022/07/04 01:04:16;;;;;;;7.50;3.35;;;;;;;20.82;62.62;100598.84;5011379;28;20029;-78
2022/07/04 01:06:42;;;;;;;14.55;4.18;;;;;;;20.84;64.13;100586.56;5011214;28;20029;-78
2022/07/04 01:09:08;;;;;;;14.27;3.70;;;;;;;21.04;64.06;100595.28;5008264;28;20485;-78
2022/07/04 01:11:33;;;;;;;17.40;4.40;;;;;;;21.03;64.19;100585.66;5010800;28;20041;-79
2022/07/04 01:13:59;;;;;;;13.70;3.78;;;;;;;21.00;64.27;100582.16;5011287;28;20185;-77
2022/07/04 01:16:26;;;;;;;12.35;3.33;;;;;;;21.22;63.85;100599.56;5011081;28;20026;-81
2022/07/04 01:18:53;;;;;;;11.70;2.92;;;;;;;21.12;64.06;100586.47;4998484;28;20069;-79
2022/07/04 01:21:20;;;;;;;10.75;3.38;;;;;;;21.02;63.68;100592.63;4990001;28;20077;-80
2022/07/04 01:23:46;;;;;;;6.13;3.38;;;;;;;20.81;64.43;100599.72;4991128;28;20563;-81
2022/07/04 01:26:11;;;;;;;8.30;3.25;;;;;;;20.67;65.48;100589.25;4991139;28;20026;-81
2022/07/04 01:28:37;;;;;;;7.70;3.42;;;;;;;20.20;65.75;100512.44;4991334;28;20030;-80
2022/07/04 01:31:03;;;;;;;9.15;3.20;;;;;;;20.58;65.60;100567.41;4997168;28;20076;-79
2022/07/04 01:33:29;;;;;;;7.07;3.15;;;;;;;20.41;65.65;100544.72;5010590;28;20034;-78
2022/07/04 01:35:54;;;;;;;10.98;3.28;;;;;;;20.64;66.07;100563.00;5010935;28;20539;-77
2022/07/04 01:38:20;;;;;;;7.28;3.08;;;;;;;20.72;65.51;100570.88;5009411;28;20033;-81
2022/07/04 01:40:45;;;;;;;6.05;2.67;;;;;;;20.78;65.36;100575.25;4993764;28;20486;-80
2022/07/04 01:43:11;;;;;;;9.43;3.30;;;;;;;20.67;66.25;100576.13;5004363;28;20041;-80
2022/07/04 01:45:39;;;;;;;11.60;3.20;;;;;;;20.51;66.29;100572.66;5010490;28;20091;-84
2022/07/04 01:48:10;;;;;;;10.82;3.35;;;;;;;20.43;66.76;100574.41;4992747;28;20481;-78
2022/07/04 01:50:35;;;;;;;4.93;2.78;;;;;;;20.28;67.03;100558.72;5002385;28;20030;-80
2022/07/04 01:53:01;;;;;;;8.35;2.80;;;;;;;20.35;67.36;100552.59;4996840;28;20084;-80
2022/07/04 01:55:27;;;;;;;8.60;3.50;;;;;;;20.43;66.66;100565.69;4990434;28;20037;-80
2022/07/04 01:57:53;;;;;;;14.55;3.58;;;;;;;20.47;65.97;100557.81;4973058;28;20637;-79
2022/07/04 02:03:02;;;;;;;6.75;2.95;;;;;;;20.42;63.47;100535.97;4990776;28;20606;-80
2022/07/04 02:05:28;;;;;;;6.95;2.88;;;;;;;20.26;63.40;100531.63;4990372;28;20117;-80
2022/07/04 02:07:53;;;;;;;11.27;3.08;;;;;;;20.42;63.49;100570.03;4972856;28;20505;-79
2022/07/04 02:10:19;;;;;;;6.30;3.08;;;;;;;20.31;63.04;100553.47;4993379;28;20124;-78
2022/07/04 02:13:03;;;;;;;12.10;2.80;;;;;;;20.26;61.93;100555.22;4994150;28;20453;-79
2022/07/04 02:15:35;;;;;;;7.22;3.00;;;;;;;20.17;62.15;100562.22;4994268;28;20117;-80
2022/07/04 02:18:01;;;;;;;11.60;3.30;;;;;;;20.18;62.42;100569.22;4976621;28;20026;-80
2022/07/04 02:20:27;;;;;;;8.95;3.38;;;;;;;20.20;62.81;100561.38;4992371;28;20390;-80
2022/07/04 02:22:53;;;;;;;10.10;3.80;;;;;;;20.18;63.33;100563.97;4994070;28;20037;-81
2022/07/04 02:25:19;;;;;;;11.25;3.90;;;;;;;20.13;63.31;100567.50;4994080;28;20034;-80
2022/07/04 02:27:44;;;;;;;8.90;3.35;;;;;;;19.91;64.05;100569.25;4993836;28;20033;-76
2022/07/04 02:30:11;;;;;;;10.75;3.47;;;;;;;19.90;63.83;100580.59;4992431;28;20066;-80
2022/07/04 02:32:37;;;;;;;9.20;3.88;;;;;;;19.62;63.69;100529.03;4993597;28;20030;-79
2022/07/04 02:35:03;;;;;;;10.93;3.25;;;;;;;19.80;63.97;100572.72;4993839;28;20054;-80
2022/07/04 02:37:28;;;;;;;8.90;3.42;;;;;;;19.77;63.88;100556.97;4993642;28;20022;-81
2022/07/04 02:39:54;;;;;;;7.53;3.17;;;;;;;19.77;64.23;100590.16;4992519;28;20031;-80
2022/07/04 02:42:19;;;;;;;8.43;3.38;;;;;;;19.60;64.71;100580.56;4993692;28;20053;-80
2022/07/04 02:44:45;;;;;;;7.47;3.58;;;;;;;19.15;65.30;100522.88;4993499;28;20030;-80
2022/07/04 02:47:11;;;;;;;7.72;3.72;;;;;;;19.66;64.72;100601.47;4992122;28;20030;-80
2022/07/04 02:49:36;;;;;;;7.55;3.30;;;;;;;19.65;64.64;100607.63;4993488;28;20069;-80
2022/07/04 02:52:02;;;;;;;10.13;3.25;;;;;;;19.50;65.15;100605.84;4993356;28;20031;-79
2022/07/04 02:54:27;;;;;;;7.80;3.38;;;;;;;19.39;65.72;100591.84;4993483;28;20104;-78
2022/07/04 02:56:53;;;;;;;7.05;3.50;;;;;;;18.99;65.59;100541.97;4993211;28;20100;-81
2022/07/04 02:59:18;;;;;;;10.30;3.53;;;;;;;19.30;65.88;100605.78;4993292;28;20037;-84
2022/07/04 03:01:44;;;;;;;6.65;3.72;;;;;;;19.32;66.16;100611.88;4971260;28;20035;-80
2022/07/04 03:04:09;;;;;;;6.75;3.47;;;;;;;19.15;66.27;100587.41;4971495;28;20079;-80
2022/07/04 03:06:36;;;;;;;6.38;3.05;;;;;;;19.11;66.86;100604.81;4971307;28;20042;-81
2022/07/04 03:09:01;;;;;;;8.45;3.28;;;;;;;18.81;67.18;100571.53;4971831;28;20506;-79
2022/07/04 03:11:27;;;;;;;4.82;3.08;;;;;;;19.05;67.25;100612.66;4971574;28;20042;-80
2022/07/04 03:13:52;;;;;;;9.00;3.67;;;;;;;19.01;68.12;100619.59;4971338;28;20043;-81
2022/07/04 03:16:18;;;;;;;7.22;3.50;;;;;;;18.70;68.10;100574.09;4971230;28;20136;-82
2022/07/04 03:18:43;;;;;;;8.30;3.45;;;;;;;18.80;68.47;100601.16;4971084;28;20023;-82
2022/07/04 03:21:09;;;;;;;6.93;3.50;;;;;;;18.70;68.25;100598.50;4950558;28;20047;-81
2022/07/04 03:23:34;;;;;;;9.80;3.17;;;;;;;18.78;68.08;100601.16;4951810;28;20039;-81
2022/07/04 03:26:00;;;;;;;6.07;3.35;;;;;;;18.76;68.21;100605.50;4951953;28;20054;-81
2022/07/04 03:28:26;;;;;;;8.10;3.83;;;;;;;18.89;68.06;100628.25;4951735;28;20062;-81
2022/07/04 03:30:52;;;;;;;6.43;3.08;;;;;;;18.87;67.94;100611.66;4951668;28;20027;-80
2022/07/04 03:33:18;;;;;;;5.70;3.25;;;;;;;18.93;68.05;100618.72;4965545;28;20588;-81
2022/07/04 03:35:43;;;;;;;10.20;3.20;;;;;;;18.89;67.83;100607.31;4970656;28;20047;-82
2022/07/04 03:38:09;;;;;;;7.35;3.63;;;;;;;19.04;68.56;100617.03;4970989;28;20475;-80
2022/07/04 03:40:35;;;;;;;5.43;3.13;;;;;;;19.01;67.94;100598.69;4970923;28;20038;-81
2022/07/04 03:43:02;;;;;;;10.75;3.22;;;;;;;18.74;68.77;100562.78;4970808;28;20391;-81
2022/07/04 03:45:28;;;;;;;9.35;3.72;;;;;;;18.06;71.28;100568.47;4970795;28;20051;-80
2022/07/04 03:47:54;;;;;;;7.40;3.72;;;;;;;17.88;73.88;100641.41;4954425;28;20038;-80
2022/07/04 03:50:20;;;;;;;7.43;3.28;;;;;;;17.96;73.39;100626.72;4984556;28;20422;-82
2022/07/04 03:52:46;;;;;;;9.75;3.80;;;;;;;18.16;73.80;100618.19;4986062;28;20050;-81
2022/07/04 03:55:11;;;;;;;7.72;3.90;;;;;;;18.37;72.06;100638.38;4986929;28;20148;-81
2022/07/04 03:57:37;;;;;;;6.25;3.03;;;;;;;17.96;74.25;100639.78;4995313;28;20039;-80
2022/07/04 04:00:03;;;;;;;8.40;3.05;;;;;;;18.10;73.33;100627.69;5009793;28;20038;-81
2022/07/04 04:02:28;;;;;;;6.07;3.60;;;;;;;18.13;73.66;100619.03;5010308;28;20026;-81
2022/07/04 04:07:38;;;;;;;6.75;3.55;;;;;;;18.45;72.76;100636.69;5007786;28;20040;-82
2022/07/04 04:10:03;;;;;;;7.70;3.60;;;;;;;18.61;72.38;100634.19;5009372;28;20018;-81
2022/07/04 04:12:29;;;;;;;6.53;3.72;;;;;;;18.77;71.57;100628.19;5011562;28;20025;-80
2022/07/04 04:14:54;;;;;;;6.88;3.33;;;;;;;18.65;71.03;100597.59;4993114;28;20037;-79
2022/07/04 04:17:20;;;;;;;9.57;3.50;;;;;;;18.58;70.88;100583.63;5011788;28;20488;-79
2022/07/04 04:19:45;;;;;;;9.07;3.65;;;;;;;18.45;71.21;100563.50;5010421;28;20528;-81
2022/07/04 04:22:11;;;;;;;8.60;3.58;;;;;;;18.83;70.97;100622.09;5011368;28;20053;-81
2022/07/04 04:24:36;;;;;;;7.07;3.65;;;;;;;18.91;71.05;100612.59;5011329;28;20036;-81
2022/07/04 04:27:02;;;;;;;14.93;3.55;;;;;;;18.76;70.79;100568.91;5009935;28;20472;-82
2022/07/04 04:29:28;;;;;;;15.43;4.30;;;;;;;19.05;69.81;100608.31;5011255;28;20460;-78
2022/07/04 04:31:53;;;;;;;6.63;3.38;;;;;;;19.19;70.01;100625.78;5011462;28;20044;-80
2022/07/04 04:34:19;;;;;;;8.65;3.65;;;;;;;19.10;69.43;100608.31;5011421;28;20539;-80
2022/07/04 04:36:44;;;;;;;5.68;3.42;;;;;;;18.85;70.69;100582.00;5011446;28;20032;-82
2022/07/04 04:39:09;;;;;;;6.45;3.25;;;;;;;19.13;71.22;100624.03;4993656;28;20552;-79
2022/07/04 04:41:35;;;;;;;15.43;3.40;;;;;;;19.24;70.68;100618.84;5011262;28;20535;-81
2022/07/04 04:44:00;;;;;;;7.22;3.40;;;;;;;19.39;71.01;100631.13;4993553;28;20489;-80
2022/07/04 04:46:26;;;;;;;8.82;3.45;;;;;;;19.34;70.66;100620.63;5011032;28;20469;-80
2022/07/04 04:48:51;;;;;;;7.82;3.53;;;;;;;19.34;70.93;100628.47;5011037;28;20791;-80
2022/07/04 04:51:17;;;;;;;5.00;3.45;;;;;;;19.32;71.25;100621.50;5000580;28;20046;-80
2022/07/04 04:53:42;;;;;;;7.10;4.00;;;;;;;19.41;70.46;100626.75;4974007;28;20036;-81
2022/07/04 04:56:08;;;;;;;7.88;3.75;;;;;;;19.51;69.17;100620.66;4991535;28;20121;-83
2022/07/04 04:58:33;;;;;;;5.88;3.38;;;;;;;19.48;69.24;100596.22;4991278;28;20413;-79
2022/07/04 05:00:59;;;;;;;9.18;3.50;;;;;;;19.83;69.76;100635.59;4991265;28;20042;-79
2022/07/04 05:03:24;;;;;;;9.88;3.53;;;;;;;19.81;70.31;100631.19;4991426;28;20036;-78
2022/07/04 05:05:49;;;;;;;14.40;6.45;;;;;;;19.61;72.70;100639.03;4989967;28;20417;-79
2022/07/04 05:08:15;;;;;;;59.03;35.53;;;;;;;19.57;71.50;100622.44;4973812;28;20022;-78
2022/07/04 05:10:41;;;;;;;21.20;11.70;;;;;;;19.68;69.99;100625.94;4991249;28;20038;-79
2022/07/04 05:13:06;;;;;;;9.00;5.38;;;;;;;19.82;70.84;100649.53;4991405;28;20161;-79
2022/07/04 05:15:32;;;;;;;8.57;5.05;;;;;;;19.53;71.34;100589.25;4991294;28;20030;-82
2022/07/04 05:17:57;;;;;;;10.15;4.20;;;;;;;19.55;71.72;100611.97;4991200;28;20058;-78
2022/07/04 05:20:23;;;;;;;11.55;3.83;;;;;;;19.68;71.86;100622.47;5007501;28;20033;-80
2022/07/04 05:22:48;;;;;;;10.38;4.68;;;;;;;19.44;72.16;100563.94;5010865;28;20033;-80
2022/07/04 05:25:14;;;;;;;10.68;4.03;;;;;;;19.93;71.95;100623.38;5010868;28;20026;-77
2022/07/04 05:27:40;;;;;;;10.52;3.97;;;;;;;20.12;71.45;100642.59;5010402;28;20489;-78
2022/07/04 05:30:06;;;;;;;6.47;3.70;;;;;;;20.22;70.54;100633.00;5010423;28;20084;-79
2022/07/04 05:32:32;;;;;;;10.25;5.15;;;;;;;20.32;69.79;100633.88;5010796;28;20037;-80
2022/07/04 05:34:58;;;;;;;9.50;5.30;;;;;;;20.35;68.33;100626.88;5010503;28;20061;-78
2022/07/04 05:37:23;;;;;;;13.10;7.30;;;;;;;20.57;66.06;100631.22;5010589;28;20026;-78
2022/07/04 05:39:49;;;;;;;14.52;7.35;;;;;;;20.57;66.96;100620.72;5008404;28;20065;-79
2022/07/04 05:42:14;;;;;;;10.90;5.35;;;;;;;20.72;66.23;100628.59;5005148;28;20041;-79
2022/07/04 05:44:40;;;;;;;12.10;5.88;;;;;;;20.80;65.33;100615.47;4992496;28;20038;-78
2022/07/04 05:47:05;;;;;;;9.32;5.22;;;;;;;20.81;66.21;100610.22;4994640;28;20034;-77
2022/07/04 05:49:31;;;;;;;11.05;4.93;;;;;;;20.99;65.13;100621.53;4994983;28;20047;-79
2022/07/04 05:51:56;;;;;;;8.50;4.97;;;;;;;21.07;62.18;100626.75;4994658;28;20019;-79
2022/07/04 05:54:21;;;;;;;8.30;4.00;;;;;;;21.02;61.60;100590.00;4994634;28;20030;-80
2022/07/04 05:56:47;;;;;;;9.48;4.47;;;;;;;21.46;60.26;100632.72;4993312;28;20034;-85
2022/07/04 05:59:12;;;;;;;6.63;4.03;;;;;;;21.56;59.77;100620.41;4994518;28;20088;-82
2022/07/04 06:01:39;;;;;;;10.35;3.90;;;;;;;21.66;59.18;100606.34;4994899;28;20023;-83
2022/07/04 06:04:05;;;;;;;7.40;4.00;;;;;;;21.76;59.51;100604.53;4972463;28;20121;-82
2022/07/04 06:06:30;;;;;;;6.50;3.72;;;;;;;21.91;58.63;100611.44;4972530;28;20730;-80
2022/07/04 06:08:57;;;;;;;10.38;3.47;;;;;;;21.78;58.43;100572.09;4972410;28;20090;-80
2022/07/04 06:11:22;;;;;;;7.88;3.33;;;;;;;22.10;58.03;100618.25;4972560;28;20086;-80
2022/07/04 06:13:50;;;;;;;11.07;4.00;;;;;;;22.21;57.46;100614.69;4972501;28;20043;-80
2022/07/04 06:16:16;;;;;;;7.05;3.22;;;;;;;21.97;57.83;100548.28;4972646;28;20042;-80
2022/07/04 06:18:42;;;;;;;8.73;3.53;;;;;;;22.38;57.60;100596.13;4972508;28;20043;-79
2022/07/04 06:21:08;;;;;;;7.00;3.50;;;;;;;22.56;56.10;100588.06;4972167;28;20101;-80
2022/07/04 06:23:34;;;;;;;6.43;3.38;;;;;;;22.38;56.15;100538.25;4972239;28;20042;-80
2022/07/04 06:25:59;;;;;;;5.50;3.70;;;;;;;22.82;54.86;100591.28;4972102;28;20050;-80
2022/07/04 06:28:25;;;;;;;7.18;3.38;;;;;;;22.83;55.53;100585.13;4972086;28;20045;-79
2022/07/04 06:30:50;;;;;;;7.03;3.55;;;;;;;22.79;55.89;100563.22;4956097;28;20043;-80
2022/07/04 06:33:16;;;;;;;8.82;3.58;;;;;;;23.06;55.06;100600.66;4972155;28;20057;-79
2022/07/04 06:38:36;;;;;;;6.03;3.65;;;;;;;23.14;54.02;100588.25;4895587;29;20080;-80
2022/07/04 06:41:03;;;;;;;7.25;3.53;;;;;;;23.22;55.13;100596.09;4895664;29;20045;-83
2022/07/04 06:43:28;;;;;;;9.63;3.90;;;;;;;23.20;54.99;100577.69;4895672;29;20067;-78
2022/07/04 06:45:54;;;;;;;7.85;3.42;;;;;;;23.41;54.43;100599.34;4895844;29;20052;-79
2022/07/04 06:48:19;;;;;;;6.43;3.17;;;;;;;23.40;53.68;100580.03;4895589;29;20503;-80
2022/07/04 06:50:45;;;;;;;9.32;3.28;;;;;;;23.42;53.71;100580.00;4895712;29;20037;-80
2022/07/04 06:53:11;;;;;;;11.02;4.32;;;;;;;23.67;50.53;100577.00;4895526;29;20725;-80
2022/07/04 06:55:38;;;;;;;8.02;3.67;;;;;;;23.80;49.16;100562.75;4879565;29;20037;-79
2022/07/04 06:58:07;;;;;;;6.00;3.53;;;;;;;24.02;50.04;100584.34;4890000;29;20424;-79
2022/07/04 07:00:33;;;;;;;9.57;3.53;;;;;;;23.94;49.58;100578.34;4876826;29;20097;-79
2022/07/04 07:02:59;;;;;;;8.20;2.90;;;;;;;23.73;47.35;100584.81;4876627;29;20076;-85
2022/07/04 07:05:27;;;;;;;8.93;3.42;;;;;;;23.50;52.02;100535.09;4897781;29;20043;-79
2022/07/04 07:07:53;;;;;;;8.18;3.47;;;;;;;23.72;50.87;100559.34;4898155;29;20080;-79
2022/07/04 07:10:19;;;;;;;9.27;3.42;;;;;;;23.82;48.13;100566.19;4914367;29;20035;-80
2022/07/04 07:12:44;;;;;;;8.32;3.03;;;;;;;24.08;47.55;100571.97;4914069;29;20035;-79
2022/07/04 07:15:10;;;;;;;7.90;3.03;;;;;;;23.76;43.83;100510.94;4959188;28;20631;-80
2022/07/04 07:17:35;;;;;;;4.53;2.67;;;;;;;24.08;43.55;100545.59;4993224;28;20117;-80
2022/07/04 07:20:01;;;;;;;8.80;3.20;;;;;;;24.38;40.80;100567.91;4993048;28;20146;-79
2022/07/04 07:22:26;;;;;;;5.68;3.00;;;;;;;24.53;39.70;100554.41;4992904;28;20037;-80
2022/07/04 07:24:52;;;;;;;5.93;2.92;;;;;;;24.42;40.64;100516.81;4993068;28;20057;-80
2022/07/04 07:27:17;;;;;;;5.60;2.83;;;;;;;24.65;41.46;100529.56;4992912;28;20065;-80
2022/07/04 07:29:43;;;;;;;3.85;2.70;;;;;;;24.87;41.16;100530.00;4992872;28;20026;-79
2022/07/04 07:32:08;;;;;;;8.75;2.72;;;;;;;24.75;40.17;100487.13;4991604;28;20066;-80
2022/07/04 07:34:34;;;;;;;5.78;2.17;;;;;;;25.06;37.19;100528.72;4993150;28;20046;-81
2022/07/04 07:37:00;;;;;;;6.25;2.60;;;;;;;25.14;38.50;100540.00;4991489;28;20046;-79
2022/07/04 07:39:26;;;;;;;3.72;2.50;;;;;;;25.12;38.55;100525.94;5008929;28;20030;-80
2022/07/04 07:41:52;;;;;;;7.72;2.60;;;;;;;25.27;39.47;100541.47;5012767;28;20046;-80
2022/07/04 07:44:17;;;;;;;6.00;2.97;;;;;;;25.29;39.12;100539.63;5011165;28;20033;-80
2022/07/04 07:46:43;;;;;;;7.85;2.88;;;;;;;25.30;40.86;100533.44;5012223;28;20070;-80
2022/07/04 07:49:08;;;;;;;4.63;2.63;;;;;;;25.45;40.77;100531.41;5012270;28;20628;-78
2022/07/04 07:51:34;;;;;;;4.78;2.85;;;;;;;25.63;46.19;100546.81;5012117;28;20026;-80
2022/07/04 07:53:59;;;;;;;4.95;2.75;;;;;;;25.73;42.49;100538.63;5011460;28;20033;-81
2022/07/04 07:56:25;;;;;;;7.35;3.08;;;;;;;25.76;40.63;100543.88;5011821;28;20030;-79
2022/07/04 07:58:51;;;;;;;7.43;2.67;;;;;;;25.91;39.18;100542.59;5011827;28;20109;-82
2022/07/04 08:01:17;;;;;;;6.53;2.83;;;;;;;25.70;39.08;100472.63;5011598;28;20564;-79
2022/07/04 08:06:27;;;;;;;5.93;2.80;;;;;;;26.20;43.67;100533.91;5011264;28;20405;-80
2022/07/04 08:08:53;;;;;;;8.00;2.75;;;;;;;26.00;37.39;100497.38;5012051;28;20033;-79
2022/07/04 08:11:18;;;;;;;5.97;2.40;;;;;;;25.95;35.24;100476.34;5012355;28;20034;-80
2022/07/04 08:13:44;;;;;;;5.00;2.40;;;;;;;26.37;34.09;100529.94;5011993;28;20507;-80
2022/07/04 08:16:10;;;;;;;5.32;2.35;;;;;;;26.38;35.68;100529.03;5011798;28;20457;-81
2022/07/04 08:18:35;;;;;;;5.80;2.75;;;;;;;26.35;34.12;100497.38;4993345;28;20096;-80
2022/07/04 08:21:02;;;;;;;5.57;2.58;;;;;;;26.60;36.58;100534.59;5011806;28;20065;-81
2022/07/04 08:23:30;;;;;;;4.90;2.50;;;;;;;26.52;36.88;100508.34;5010483;28;20038;-80
2022/07/04 08:25:55;;;;;;;7.05;2.70;;;;;;;26.71;39.35;100531.63;5011632;28;20040;-81
2022/07/04 08:28:21;;;;;;;12.05;3.30;;;;;;;26.62;37.67;100516.88;5010705;28;20025;-80
2022/07/04 08:30:46;;;;;;;9.52;3.00;;;;;;;26.82;33.28;100526.91;4992708;28;20417;-79
2022/07/04 08:33:11;;;;;;;6.75;2.78;;;;;;;26.93;33.55;100522.16;4993122;28;20408;-84
2022/07/04 08:35:37;;;;;;;8.45;2.95;;;;;;;27.01;36.03;100518.41;5011276;28;20054;-87
2022/07/04 08:38:02;;;;;;;7.22;3.00;;;;;;;26.99;33.89;100510.50;5011194;28;20128;-80
2022/07/04 08:40:30;;;;;;;7.32;2.70;;;;;;;27.13;35.48;100526.00;5010751;28;20026;-81
2022/07/04 08:42:56;;;;;;;6.70;2.70;;;;;;;27.21;36.06;100523.09;5009230;28;20033;-82
2022/07/04 08:45:35;;;;;;;6.35;2.42;;;;;;;27.19;31.83;100509.00;4993250;28;20116;-82
2022/07/04 08:48:08;;;;;;;8.00;3.75;;;;;;;27.33;31.28;100524.47;4998753;28;20034;-79
2022/07/04 08:50:38;;;;;;;8.20;3.05;;;;;;;27.29;35.91;100526.34;5004792;28;20040;-82
2022/07/04 08:53:10;;;;;;;9.00;3.13;;;;;;;27.26;32.92;100524.66;4990140;28;20059;-81
2022/07/04 08:58:26;;;;;;;6.07;2.70;;;;;;;27.52;34.68;100503.59;5008466;28;20099;-84
2022/07/04 09:01:07;;;;;;;9.05;2.60;;;;;;;27.63;32.91;100508.50;4993014;28;20187;-86
2022/07/04 09:03:33;;;;;;;17.33;3.53;;;;;;;27.70;32.07;100510.94;5008439;28;20516;-85
2022/07/04 09:05:59;;;;;;;9.13;3.55;;;;;;;27.64;31.71;100468.69;4992709;28;20022;-82
2022/07/04 09:08:25;;;;;;;14.63;3.88;;;;;;;27.95;30.51;100495.94;5010444;28;20017;-81
2022/07/04 09:10:52;;;;;;;11.95;3.55;;;;;;;28.04;30.33;100509.78;5010143;28;20010;-81
2022/07/04 09:13:19;;;;;;;18.30;4.00;;;;;;;28.21;32.08;100508.31;4992867;28;20517;-82
2022/07/04 09:15:46;;;;;;;12.55;3.22;;;;;;;28.20;28.07;100496.84;5006874;28;20088;-83
2022/07/04 09:18:26;;;;;;;12.57;2.75;;;;;;;28.41;28.14;100510.22;4997493;28;20101;-81
2022/07/04 09:21:09;;;;;;;9.13;2.90;;;;;;;28.34;30.20;100474.22;4990466;28;20661;-85
2022/07/04 09:23:40;;;;;;;10.65;2.88;;;;;;;28.68;30.29;100497.75;4990630;28;20022;-83
2022/07/04 09:26:17;;;;;;;10.30;2.75;;;;;;;28.83;28.60;100485.66;4990405;28;20026;-85
2022/07/04 09:28:50;;;;;;;13.07;2.58;;;;;;;28.97;33.72;100502.84;4990320;28;20019;-83
2022/07/04 09:31:27;;;;;;;17.05;3.28;;;;;;;29.00;30.14;100502.75;4990224;28;20033;-86
2022/07/04 09:33:57;;;;;;;18.27;4.60;;;;;;;29.10;27.75;100497.91;4991353;28;20517;-88
2022/07/04 09:36:35;;;;;;;33.72;4.70;;;;;;;28.91;29.89;100455.25;4990483;28;20039;-90
2022/07/04 09:39:20;;;;;;;17.08;3.13;;;;;;;29.26;28.92;100496.38;4989773;28;20080;-84
2022/07/04 09:41:55;;;;;;;7.85;2.45;;;;;;;29.35;31.55;100506.66;4996032;28;20029;-83
2022/07/04 09:44:21;;;;;;;8.55;2.45;;;;;;;29.46;29.28;100500.91;4988598;28;20061;-83
2022/07/04 09:46:47;;;;;;;8.48;2.30;;;;;;;29.47;32.11;100464.53;4988204;28;20049;-82
2022/07/04 09:49:13;;;;;;;13.57;2.63;;;;;;;29.78;29.69;100488.03;4990312;28;20035;-82
2022/07/04 09:51:46;;;;;;;10.45;2.63;;;;;;;29.94;26.41;100492.72;5005310;28;20026;-80
2022/07/04 09:54:31;;;;;;;7.72;2.15;;;;;;;29.86;26.33;100438.00;5009512;28;20072;-78
2022/07/04 09:57:02;;;;;;;22.15;3.75;;;;;;;30.18;26.09;100458.81;5010156;28;20026;-85
2022/07/04 09:59:28;;;;;;;10.10;2.50;;;;;;;30.30;22.20;100444.94;4997364;28;20089;-79
2022/07/04 10:02:08;;;;;;;8.38;1.90;;;;;;;30.71;22.81;100475.94;4989579;28;20080;-83
2022/07/04 10:05:04;;;;;;;5.88;2.03;;;;;;;30.57;23.38;100441.09;5006822;28;20030;-80
2022/07/04 10:07:43;;;;;;;11.40;2.72;;;;;;;30.81;20.08;100458.56;4929326;29;20628;-87
2022/07/04 10:10:24;;;;;;;5.80;2.05;;;;;;;30.41;20.80;100355.72;4929702;29;20114;-79
2022/07/04 10:12:51;;;;;;;4.63;2.05;;;;;;;31.05;24.48;100446.81;4910883;29;20075;-87
2022/07/04 10:15:18;;;;;;;4.45;1.50;;;;;;;31.45;22.86;100480.41;4910440;29;20040;-82
2022/07/04 10:17:43;;;;;;;22.73;5.05;;;;;;;31.56;22.04;100473.66;4929552;29;20040;-82
2022/07/04 10:20:10;;;;;;;10.77;3.10;;;;;;;31.43;24.43;100436.91;4930405;29;20036;-82
2022/07/04 10:22:37;;;;;;;7.50;2.03;;;;;;;31.61;24.39;100471.59;4913992;29;20035;-86
2022/07/04 10:25:04;;;;;;;4.63;2.08;;;;;;;31.74;24.10;100474.53;4930182;29;20056;-82
2022/07/04 10:27:30;;;;;;;9.73;2.20;;;;;;;31.76;20.58;100453.97;4930234;29;20503;-82
2022/07/04 10:29:56;;;;;;;7.88;2.20;;;;;;;31.91;21.87;100466.50;4914360;29;20627;-85
2022/07/04 10:32:22;;;;;;;8.85;2.22;;;;;;;31.97;20.42;100443.09;4898821;29;20040;-86
2022/07/04 10:34:47;;;;;;;9.13;1.85;;;;;;;32.03;20.21;100445.47;4913894;29;20060;-87
2022/07/04 10:37:13;;;;;;;5.35;1.80;;;;;;;32.00;24.56;100472.31;4913760;29;20048;-87
2022/07/04 10:39:40;;;;;;;10.32;2.20;;;;;;;32.19;21.50;100456.16;4908456;29;20039;-86
2022/07/04 10:42:06;;;;;;;4.43;1.63;;;;;;;32.45;18.61;100445.88;4898091;29;20024;-87
2022/07/04 10:44:37;;;;;;;3.42;1.70;;;;;;;32.30;19.69;100443.13;4963342;28;20414;-81
2022/07/04 10:47:04;;;;;;;3.85;1.48;;;;;;;32.33;21.78;100405.56;5008025;28;20448;-88
2022/07/04 10:49:30;;;;;;;12.13;2.20;;;;;;;32.61;20.35;100428.03;4995701;28;20025;-85
2022/07/04 10:52:09;;;;;;;10.82;2.67;;;;;;;32.89;18.09;100439.91;5013322;28;20026;-82
2022/07/04 10:54:37;;;;;;;;;;;;;;;32.97;22.57;100423.41;4995775;28;20022;-81
2022/07/04 10:57:19;;;;;;;9.88;2.10;;;;;;;33.26;18.35;100440.44;4994276;28;19925;-84
2022/07/04 10:59:54;;;;;;;5.82;1.75;;;;;;;33.09;18.04;100384.38;4993029;28;20037;-85
2022/07/04 11:02:19;;;;;;;12.60;3.47;;;;;;;33.47;22.15;100424.97;4993045;28;20112;-84
2022/07/04 11:04:51;;;;;;;5.65;2.05;;;;;;;33.42;21.85;100383.34;4992008;28;20483;-86
2022/07/04 11:07:18;;;;;;;10.88;2.28;;;;;;;33.46;20.92;100400.94;4990614;28;20061;-87
2022/07/04 11:09:44;;;;;;;4.97;1.73;;;;;;;33.79;18.46;100419.44;4990431;28;20022;-85
2022/07/04 11:12:12;;;;;;;4.13;1.80;;;;;;;34.01;22.24;100421.69;4992673;28;20032;-85
2022/07/04 11:14:48;;;;;;;6.23;1.70;;;;;;;34.00;20.40;100416.44;4988989;28;20101;-84
2022/07/04 11:17:21;;;;;;;7.25;1.67;;;;;;;33.87;19.85;100402.91;4973591;28;20517;-86
2022/07/04 11:19:47;;;;;;;3.38;1.40;;;;;;;33.92;19.28;100398.16;4988927;28;20513;-88
2022/07/04 11:22:22;;;;;;;5.28;1.98;;;;;;;34.16;19.60;100410.97;4989787;28;20542;-83
2022/07/04 11:24:48;;;;;;;11.07;2.30;;;;;;;34.00;19.59;100393.16;4990806;28;20508;-86
2022/07/04 11:27:15;;;;;;;7.38;1.73;;;;;;;34.05;18.36;100375.94;4993551;28;20034;-82
2022/07/04 11:29:53;;;;;;;8.70;1.83;;;;;;;34.19;21.38;100383.97;5009837;28;20414;-83
2022/07/04 11:32:20;;;;;;;4.60;1.50;;;;;;;34.25;19.48;100388.09;4993235;28;20469;-81
2022/07/04 11:34:46;;;;;;;3.45;1.63;;;;;;;34.32;17.02;100384.03;5004403;28;20517;-80
2022/07/04 11:37:13;;;;;;;3.10;1.52;;;;;;;34.40;16.98;100372.88;5008970;28;20125;-82